Data for 07/16/2007

Time Sea-Level Adjusted Pressure Absolute Pressure Temperature Relative Humidity Dew Point   
(mb) (inHg) (mb) (inHg) (C) (F) (%) (C) (F)
00:05 1019 30.09 848 25.04 21.1 70.1 43 8.2 46.7
00:10 1019 30.09 848 25.04 21.2 70.1 42 7.8 46.1
00:15 1019 30.09 848 25.04 21.3 70.4 44 8.7 47.7
00:20 1019 30.09 848 25.04 21.2 70.2 43 8.2 46.7
00:25 1019 30.09 848 25.04 21.1 70 42 7.7 45.9
00:30 1019 30.09 848 25.04 21.1 70 42 7.8 46.1
00:35 1019 30.09 848 25.04 21.2 70.1 43 8.1 46.6
00:40 1019 30.09 848 25.04 21 69.9 43 8.3 46.9
00:45 1019 30.09 848 25.04 20.8 69.4 48 9.5 49
00:50 1019 30.09 848 25.04 20.7 69.3 48 9.6 49.3
00:55 1019 30.09 848 25.04 20.2 68.4 48 9.1 48.4
01:00 1019 30.09 848 25.04 19.6 67.3 51 9.4 49
01:05 1019 30.09 848 25.04 19.3 66.8 51 9.1 48.5
01:10 1019 30.09 848 25.04 19.2 66.6 51 9 48.3
01:15 1019 30.09 848 25.04 19.3 66.7 50 8.9 47.9
01:20 1019 30.09 848 25.04 19.3 66.8 54 9.9 49.8
01:25 1019 30.09 848 25.04 19.4 66.8 52 9.5 49.1
01:30 1019 30.09 848 25.04 18.8 65.8 54 9.4 48.9
01:35 1019 30.09 848 25.04 18.5 65.4 55 9.3 48.7
01:40 1019 30.09 848 25.04 18.8 65.9 51 8.7 47.7
01:45 1019 30.09 848 25.04 19.1 66.4 53 9.3 48.7
01:50 1019 30.09 848 25.04 19.2 66.6 50 8.5 47.4
01:55 1019 30.09 848 25.04 19.5 67.1 52 9.6 49.3
02:00 1019 30.09 848 25.04 19.8 67.6 46 8.1 46.6
02:05 1019 30.09 848 25.04 19.7 67.4 48 8.5 47.3
02:10 1019 30.09 848 25.04 19.5 67 47 7.9 46.2
02:15 1019 30.09 848 25.04 19.5 67.2 47 8.1 46.7
02:20 1019 30.09 848 25.04 19.5 67 46 7.8 46
02:25 1019 30.09 848 25.04 19.6 67.2 45 7.4 45.3
02:30 1019 30.09 848 25.04 19.9 67.8 44 7.5 45.4
02:35 1018 30.06 848 25.04 20 68 44 7.4 45.4
02:40 1018 30.06 848 25.04 19.9 67.8 45 7.6 45.7
02:45 1018 30.06 848 25.04 19.8 67.6 46 7.9 46.3
02:50 1018 30.06 848 25.04 19.6 67.3 46 7.8 46
02:55 1018 30.06 848 25.04 19.6 67.2 49 8.6 47.4
03:00 1018 30.06 848 25.04 19.2 66.5 50 8.6 47.5
03:05 1018 30.06 848 25.04 18.7 65.6 52 8.7 47.7
03:10 1019 30.09 848 25.04 18.8 65.8 47 7.5 45.4
03:15 1019 30.09 848 25.04 19 66.1 49 8.1 46.7
03:20 1019 30.09 848 25.04 18.9 66.1 48 7.8 46.1
03:25 1019 30.09 848 25.04 18.7 65.6 48 7.7 45.9
03:30 1019 30.09 848 25.04 19.1 66.4 46 7.2 45
03:35 1019 30.09 848 25.04 19.4 66.9 44 6.8 44.3
03:40 1018 30.06 848 25.04 19.3 66.7 45 7.1 44.9
03:45 1018 30.06 848 25.04 18.9 65.9 48 7.6 45.8
03:50 1019 30.09 848 25.04 18.5 65.3 48 7.5 45.5
03:55 1019 30.09 848 25.04 18.6 65.5 48 7.4 45.3
04:00 1019 30.09 848 25.04 18.7 65.6 47 7.2 45
04:05 1019 30.09 848 25.04 18.7 65.7 48 7.5 45.5
04:10 1019 30.09 848 25.04 18.2 64.7 50 7.8 46
04:15 1019 30.09 848 25.04 17.8 64.1 51 7.7 45.8
04:20 1019 30.09 848 25.04 17.8 64.1 50 7.5 45.4
04:25 1019 30.09 848 25.04 18.4 65.1 47 6.9 44.4
04:30 1019 30.09 848 25.04 18.7 65.7 46 7 44.5
04:35 1019 30.09 848 25.04 18.6 65.5 47 7.2 44.9
04:40 1019 30.09 848 25.04 18.5 65.3 45 6.6 43.8
04:45 1019 30.09 848 25.04 18.9 65.9 45 6.7 44.1
04:50 1019 30.09 848 25.04 18.8 65.8 50 8.4 47
04:55 1019 30.09 848 25.04 18.5 65.4 47 7.2 44.9
05:00 1019 30.09 848 25.04 18.2 64.7 50 7.8 46
05:05 1019 30.09 848 25.04 17.9 64.2 50 7.5 45.4
05:10 1019 30.09 848 25.04 18.2 64.8 47 6.7 44.1
05:15 1019 30.09 848 25.04 18.4 65.1 46 6.7 44.1
05:20 1019 30.09 848 25.04 18.1 64.6 48 6.9 44.5
05:25 1019 30.09 848 25.04 17.8 64 48 6.8 44.2
05:30 1019 30.09 848 25.04 17.7 63.8 49 6.9 44.5
05:35 1019 30.09 848 25.04 17.5 63.6 52 7.7 45.8
05:40 1019 30.09 848 25.04 17.6 63.8 47 6.3 43.3
05:45 1019 30.09 848 25.04 18.2 64.8 46 6.5 43.7
05:50 1019 30.09 848 25.04 17.9 64.3 47 6.6 43.8
05:55 1019 30.09 848 25.04 18.3 65 47 6.8 44.2
06:00 1019 30.09 848 25.04 18.3 64.9 48 7.1 44.8
06:05 1019 30.09 848 25.04 18.3 65 46 6.5 43.7
06:10 1019 30.09 848 25.04 18 64.5 50 7.4 45.4
06:15 1019 30.09 848 25.04 17.9 64.2 47 6.6 43.8
06:20 1019 30.09 848 25.04 17.9 64.3 48 7 44.6
06:25 1019 30.09 848 25.04 17.6 63.6 51 7.4 45.4
06:30 1019 30.09 848 25.04 17.5 63.5 49 6.9 44.4
06:35 1019 30.09 848 25.04 17.7 63.9 49 6.9 44.4
06:40 1019 30.09 848 25.04 18 64.5 49 7.2 45
06:45 1019 30.09 848 25.04 17.7 63.9 50 7.3 45.1
06:50 1019 30.09 848 25.04 17.8 64 54 8.5 47.2
06:55 1019 30.09 848 25.04 17.8 64 55 8.6 47.5
07:00 1019 30.09 849 25.07 17.9 64.3 50 7.4 45.3
07:05 1019 30.09 849 25.07 17.9 64.3 50 7.6 45.7
07:10 1019 30.09 848 25.04 18.2 64.8 53 8.5 47.3
07:15 1019 30.09 848 25.04 17.9 64.2 55 8.8 47.8
07:20 1019 30.09 849 25.07 17.9 64.1 57 9.3 48.7
07:25 1019 30.09 849 25.07 18.2 64.8 55 9.1 48.3
07:30 1019 30.09 849 25.07 18.6 65.5 56 9.7 49.5
07:35 1019 30.09 849 25.07 19.1 66.3 45 6.9 44.4
07:40 1019 30.09 849 25.07 19.4 66.8 57 10.7 51.3
07:45 1019 30.09 849 25.07 19.7 67.5 52 9.8 49.7
07:50 1020 30.12 849 25.07 19.9 67.8 52 9.9 49.8
07:55 1020 30.12 849 25.07 20.1 68.3 53 10.5 50.9
08:00 1019 30.09 849 25.07 20.2 68.3 50 9.7 49.4
08:05 1019 30.09 849 25.07 20.1 68.1 47 8.7 47.6
08:10 1019 30.09 849 25.07 20.4 68.8 48 9.1 48.3
08:15 1019 30.09 849 25.07 20.5 68.9 48 9.1 48.4
08:20 1019 30.09 849 25.07 20.9 69.6 46 8.9 47.9
08:25 1019 30.09 849 25.07 21.6 70.8 48 10.2 50.4
08:30 1019 30.09 849 25.07 21.8 71.2 45 9.4 49
08:35 1019 30.09 849 25.07 22.2 71.9 43 9 48.2
08:40 1019 30.09 849 25.07 22.8 73 38 8 46.4
08:45 1020 30.12 849 25.07 23 73.4 39 8.5 47.2
08:50 1020 30.12 849 25.07 23.1 73.7 35 7.1 44.8
08:55 1020 30.12 849 25.07 23.4 74.1 37 8.2 46.8
09:00 1020 30.12 849 25.07 23.9 75 34 7.2 44.9
09:05 1019 30.09 849 25.07 24.9 76.7 33 7.7 45.9
09:10 1019 30.09 849 25.07 25.4 77.6 32 7.7 45.9
09:15 1019 30.09 849 25.07 25.5 77.8 33 8.3 46.9
09:20 1019 30.09 849 25.07 25.5 77.9 34 8.8 47.9
09:25 1019 30.09 849 25.07 25.3 77.5 33 8 46.4
09:30 1019 30.09 849 25.07 24.9 76.8 35 8.6 47.4
09:35 1019 30.09 849 25.07 25.7 78.3 32 8.3 46.9
09:40 1019 30.09 849 25.07 26.3 79.4 33 9 48.2
09:45 1019 30.09 849 25.07 26.5 79.7 32 8.6 47.5
09:50 1019 30.09 849 25.07 26.4 79.6 33 9 48.2
09:55 1019 30.09 849 25.07 26.6 79.8 31 8.5 47.3
10:00 1019 30.09 849 25.07 26.4 79.6 33 9.3 48.7
10:05 1019 30.09 849 25.07 27.2 80.9 32 9.5 49
10:10 1019 30.09 849 25.07 26.6 79.8 35 10 50
10:15 1019 30.09 849 25.07 26.5 79.6 34 9.8 49.6
10:20 1019 30.09 848 25.04 27 80.6 33 9.8 49.7
10:25 1019 30.09 848 25.04 27.1 80.8 33 9.5 49.1
10:30 1019 30.09 848 25.04 26.9 80.5 33 9.6 49.3
10:35 1019 30.09 848 25.04 26.6 79.8 33 9.1 48.5
10:40 1019 30.09 848 25.04 27.5 81.6 32 9.7 49.4
10:45 1019 30.09 848 25.04 27.9 82.2 31 9.4 49
10:50 1019 30.09 848 25.04 28 82.4 30 9.3 48.8
10:55 1019 30.09 848 25.04 28.8 83.9 29 9.2 48.5
11:00 1019 30.09 848 25.04 28.4 83 29 9.2 48.5
11:05 1019 30.09 848 25.04 28.9 84.1 28 9.1 48.4
11:10 1019 30.09 848 25.04 28.5 83.3 31 10.2 50.3
11:15 1019 30.09 848 25.04 27.5 81.6 31 9.3 48.8
11:20 1019 30.09 848 25.04 28.4 83 30 9.4 48.9
11:25 1019 30.09 848 25.04 28.4 83 32 10.5 50.8
11:30 1019 30.09 848 25.04 28.7 83.7 31 10 50
11:35 1019 30.09 848 25.04 29.8 85.6 29 9.9 49.9
11:40 1019 30.09 848 25.04 29.2 84.6 30 10.2 50.3
11:45 1019 30.09 848 25.04 28.6 83.6 31 10 49.9
11:50 1019 30.09 848 25.04 29.2 84.5 29 9.9 49.8
11:55 1019 30.09 848 25.04 29.1 84.4 29 9.4 48.9
12:00 1019 30.09 848 25.04 29.3 84.7 28 9.4 48.8
12:05 1019 30.09 848 25.04 29.7 85.5 26 8.7 47.7
12:10 1019 30.09 848 25.04 30.7 87.2 25 9 48.1
12:15 1019 30.09 848 25.04 30.7 87.2 25 9 48.2
12:20 1019 30.09 848 25.04 31.3 88.4 24 9 48.2
12:25 1019 30.09 848 25.04 31.8 89.3 24 9.2 48.5
12:30 1019 30.09 848 25.04 31.8 89.3 24 8.9 48
12:35 1018 30.06 848 25.04 32.2 90 20 6.9 44.5
12:40 1018 30.06 848 25.04 31.4 88.5 23 8.1 46.6
12:45 1018 30.06 848 25.04 31.1 88 24 8.3 46.9
12:50 1018 30.06 847 25.01 32.1 89.8 22 8.1 46.5
12:55 1018 30.06 847 25.01 32.7 90.9 21 8.3 46.9
13:00 1018 30.06 847 25.01 33.4 92.2 21 8.3 47
13:05 1018 30.06 847 25.01 33.7 92.7 19 7 44.5
13:10 1018 30.06 847 25.01 32.9 91.3 20 7.6 45.7
13:15 1018 30.06 847 25.01 33 91.4 20 7.5 45.5
13:20 1018 30.06 847 25.01 33.6 92.5 20 8.1 46.5
13:25 1018 30.06 847 25.01 33.6 92.5 19 7.4 45.3
13:30 1018 30.06 847 25.01 34.3 93.7 18 7.2 44.9
13:35 1018 30.06 847 25.01 34.7 94.4 17 6.3 43.3
13:40 1018 30.06 847 25.01 34.8 94.7 16 5.9 42.7
13:45 1018 30.06 847 25.01 34.5 94.1 15 4.9 40.7
13:50 1018 30.06 847 25.01 34.4 93.9 15 5 40.9
13:55 1018 30.06 847 25.01 35 95 14 4 39.3
14:00 1017 30.03 847 25.01 35.2 95.4 14 3.9 39.1
14:05 1017 30.03 847 25.01 35.1 95.1 14 3.7 38.6
14:10 1017 30.03 847 25.01 35.1 95.1 13 3.5 38.3
14:15 1017 30.03 846 24.98 35 95 13 2.8 37
14:20 1017 30.03 846 24.98 34.7 94.5 13 3.3 37.9
14:25 1017 30.03 846 24.98 35.1 95.1 13 3.2 37.7
14:30 1017 30.03 846 24.98 35.3 95.6 12 2 35.7
14:35 1017 30.03 846 24.98 35.5 96 12 1.8 35.3
14:40 1017 30.03 846 24.98 35.6 96.1 12 2.1 35.8
14:45 1017 30.03 846 24.98 35.1 95.3 12 1.9 35.5
14:50 1017 30.03 846 24.98 35.4 95.7 11 1.2 34.1
14:55 1017 30.03 846 24.98 35.4 95.8 11 1.3 34.3
15:00 1017 30.03 846 24.98 34.8 94.6 12 1.6 34.9
15:05 1017 30.03 846 24.98 34.5 94 12 1.4 34.5
15:10 1017 30.03 846 24.98 34.3 93.7 12 0.8 33.4
15:15 1017 30.03 846 24.98 35.1 95.1 11 0.7 33.2
15:20 1017 30.03 846 24.98 34.6 94.2 11 0.2 32.3
15:25 1017 30.03 846 24.98 34.7 94.5 11 0.2 32.3
15:30 1017 30.03 846 24.98 35.4 95.8 11 1.2 34.1
15:35 1017 30.03 846 24.98 34.8 94.6 11 0.8 33.5
15:40 1017 30.03 846 24.98 34.8 94.6 11 0.7 33.3
15:45 1017 30.03 846 24.98 34.3 93.8 11 0.3 32.6
15:50 1017 30.03 846 24.98 33.6 92.5 15 3.6 38.5
15:55 1017 30.03 846 24.98 32.2 89.9 20 6.6 43.9
16:00 1017 30.03 846 24.98 30.2 86.3 22 6.3 43.3
16:05 1017 30.03 846 24.98 29.3 84.7 23 6.3 43.4
16:10 1017 30.03 846 24.98 28.8 83.8 23 6 42.8
16:15 1017 30.03 846 24.98 28.6 83.5 23 6 42.9
16:20 1017 30.03 846 24.98 28.5 83.3 24 6.6 43.8
16:25 1017 30.03 847 25.01 28.3 83 25 6.5 43.8
16:30 1017 30.03 847 25.01 28.4 83.2 23 5.5 41.9
16:35 1018 30.06 847 25.01 28.4 83.1 24 6.3 43.4
16:40 1018 30.06 847 25.01 28.2 82.8 26 7.1 44.8
16:45 1018 30.06 848 25.04 27.8 82.1 26 7.1 44.8
16:50 1018 30.06 848 25.04 27.5 81.5 27 7.4 45.3
16:55 1018 30.06 848 25.04 27.1 80.7 29 7.8 46
17:00 1018 30.06 848 25.04 27.1 80.7 31 8.8 47.8
17:05 1018 30.06 848 25.04 27.1 80.8 26 6.3 43.3
17:10 1018 30.06 848 25.04 27.4 81.2 25 6 42.9
17:15 1018 30.06 848 25.04 27.3 81.1 27 7.1 44.8
17:20 1018 30.06 847 25.01 26.8 80.2 28 7.2 44.9
17:25 1018 30.06 847 25.01 26.6 79.9 28 7 44.5
17:30 1018 30.06 847 25.01 26.5 79.6 29 7.2 45
17:35 1018 30.06 847 25.01 26.5 79.7 31 8.1 46.6
17:40 1018 30.06 847 25.01 26.5 79.6 32 8.7 47.7
17:45 1018 30.06 847 25.01 26.8 80.2 30 8.2 46.7
17:50 1018 30.06 847 25.01 27.4 81.4 29 8.2 46.8
17:55 1018 30.06 847 25.01 27.7 81.8 29 8.3 46.9
18:00 1018 30.06 847 25.01 27.7 81.9 32 9.7 49.5
18:05 1018 30.06 847 25.01 27.1 80.7 32 9.3 48.8
18:10 1018 30.06 847 25.01 26.9 80.4 35 10.3 50.6
18:15 1018 30.06 847 25.01 26.7 80.1 34 9.9 49.7
18:20 1018 30.06 847 25.01 26.8 80.2 35 10.3 50.6
18:25 1018 30.06 847 25.01 27.5 81.4 28 7.8 46.1
18:30 1018 30.06 847 25.01 28.5 83.3 23 5.7 42.3
18:35 1018 30.06 847 25.01 29.1 84.5 23 6.3 43.3
18:40 1017 30.03 847 25.01 29.4 85 24 6.8 44.3
18:45 1017 30.03 847 25.01 29.5 85.2 23 6.8 44.2
18:50 1017 30.03 847 25.01 29.5 85.2 23 6.7 44.1
18:55 1017 30.03 846 24.98 29.7 85.5 23 6.7 44
19:00 1017 30.03 846 24.98 29.5 85.1 28 9.3 48.8
19:05 1017 30.03 846 24.98 28.9 84 27 8.3 47
19:10 1017 30.03 846 24.98 28.9 84 28 8.6 47.5
19:15 1017 30.03 846 24.98 28.7 83.6 30 9.8 49.6
19:20 1017 30.03 846 24.98 28.4 83.1 31 9.9 49.8
19:25 1017 30.03 846 24.98 28.2 82.7 31 10 49.9
19:30 1017 30.03 846 24.98 28 82.4 32 10.1 50.2
19:35 1017 30.03 846 24.98 28 82.5 32 10 50
19:40 1017 30.03 846 24.98 28.1 82.5 31 9.5 49.1
19:45 1017 30.03 846 24.98 27.9 82.2 33 10.4 50.7
19:50 1017 30.03 846 24.98 28 82.3 33 10.5 50.9
19:55 1017 30.03 846 24.98 27.9 82.2 33 10.5 51
20:00 1017 30.03 846 24.98 27.7 81.9 35 11.2 52.2
20:05 1017 30.03 846 24.98 27.6 81.6 37 12 53.6
20:10 1017 30.03 846 24.98 27.2 80.9 37 11.6 52.8
20:15 1017 30.03 846 24.98 26.9 80.4 36 10.7 51.3
20:20 1017 30.03 846 24.98 26.6 79.9 41 12.6 54.7
20:25 1017 30.03 846 24.98 26.2 79.1 40 11.8 53.2
20:30 1017 30.03 846 24.98 26.4 79.6 33 9.3 48.7
20:35 1017 30.03 846 24.98 26.5 79.7 35 9.9 49.8
20:40 1017 30.03 846 24.98 26.3 79.3 34 9.5 49.1
20:45 1017 30.03 846 24.98 26.2 79.1 34 9.2 48.6
20:50 1017 30.03 846 24.98 26.1 78.9 32 8.1 46.7
20:55 1017 30.03 846 24.98 26.1 79 32 8.1 46.7
21:00 1017 30.03 846 24.98 26.1 79 32 8.2 46.8
21:05 1017 30.03 846 24.98 26.1 79 31 8 46.5
21:10 1017 30.03 846 24.98 26 78.9 32 8.4 47.2
21:15 1017 30.03 846 24.98 25.6 78.1 35 9.1 48.4
21:20 1017 30.03 846 24.98 25.2 77.4 35 8.8 47.9
21:25 1017 30.03 846 24.98 25.3 77.5 35 9 48.2
21:30 1017 30.03 846 24.98 25.2 77.4 33 8.2 46.7
21:35 1017 30.03 846 24.98 25.2 77.4 32 7.5 45.6
21:40 1017 30.03 846 24.98 25.2 77.3 34 8.4 47.1
21:45 1017 30.03 846 24.98 24.8 76.6 36 9 48.2
21:50 1017 30.03 846 24.98 24.7 76.4 35 8.4 47.1
21:55 1017 30.03 846 24.98 24.7 76.4 34 8 46.4
22:00 1017 30.03 846 24.98 24.9 76.8 34 8.1 46.6
22:05 1017 30.03 846 24.98 24.8 76.6 33 7.9 46.1
22:10 1017 30.03 846 24.98 24.8 76.6 34 7.9 46.3
22:15 1017 30.03 846 24.98 24.6 76.3 35 8.4 47.2
22:20 1017 30.03 846 24.98 24.8 76.6 34 7.9 46.2
22:25 1017 30.03 846 24.98 24.9 76.8 35 8.8 47.9
22:30 1017 30.03 846 24.98 24.5 76.1 40 10.2 50.4
22:35 1017 30.03 847 25.01 24.1 75.3 44 11.2 52.1
22:40 1017 30.03 847 25.01 23.8 74.9 41 9.9 49.9
22:45 1017 30.03 847 25.01 24.4 76 34 8 46.3
22:50 1018 30.06 847 25.01 24.8 76.6 35 8.4 47.1
22:55 1018 30.06 847 25.01 24.9 76.7 34 8.1 46.6
23:00 1018 30.06 847 25.01 24.8 76.7 38 9.6 49.4
23:05 1018 30.06 847 25.01 24.5 76.2 38 9.6 49.3
23:10 1018 30.06 847 25.01 24.7 76.5 39 9.8 49.7
23:15 1018 30.06 848 25.04 23.9 74.9 51 13.2 55.8
23:20 1018 30.06 847 25.01 21.9 71.5 51 11.6 52.9
23:25 1018 30.06 847 25.01 22 71.7 48 10.6 51.1
23:30 1018 30.06 847 25.01 22.5 72.5 56 13.3 55.9
23:35 1018 30.06 847 25.01 21.9 71.3 57 13.1 55.6
23:40 1018 30.06 848 25.04 20.8 69.5 64 13.8 56.8
23:45 1018 30.06 848 25.04 20.4 68.8 60 12.6 54.6
23:50 1019 30.09 848 25.04 20.8 69.4 62 13.3 56
23:55 1019 30.09 848 25.04 21.1 70 61 13.4 56.2
24:00 1019 30.09 848 25.04 20.7 69.2 62 13.4 56.1